createdAt,value
2022-08-09T00:01:01.088Z,100872.94
2022-08-09T00:04:05.984Z,100872.56
2022-08-09T00:06:22.865Z,100873.97
2022-08-09T00:08:52.388Z,100872.53
2022-08-09T00:11:54.977Z,100877.50
2022-08-09T00:14:17.256Z,100871.09
2022-08-09T00:16:51.767Z,100876.84
2022-08-09T00:19:21.667Z,100884.25
2022-08-09T00:21:56.594Z,100892.59
2022-08-09T00:24:27.567Z,100891.31
2022-08-09T00:26:59.656Z,100890.03
2022-08-09T00:30:10.050Z,100893.09
2022-08-09T00:32:26.641Z,100892.63
2022-08-09T00:34:56.463Z,100887.59
2022-08-09T00:37:25.603Z,100895.63
2022-08-09T00:40:12.873Z,100890.41
2022-08-09T00:44:15.860Z,100888.91
2022-08-09T00:45:35.231Z,100885.78
2022-08-09T00:48:06.653Z,100885.91
2022-08-09T00:50:37.775Z,100898.16
2022-08-09T00:53:10.612Z,100896.59
2022-08-09T00:56:04.193Z,100898.44
2022-08-09T00:58:31.910Z,100903.84
2022-08-09T01:01:00.708Z,100902.19
2022-08-09T01:03:46.534Z,100898.72
2022-08-09T01:06:22.513Z,100894.28
2022-08-09T01:09:03.820Z,100900.31
2022-08-09T01:11:53.157Z,100890.41
2022-08-09T01:14:30.670Z,100891.06
2022-08-09T01:17:04.782Z,100889.06
2022-08-09T01:20:02.344Z,100888.66
2022-08-09T01:24:00.747Z,100883.09
2022-08-09T01:26:15.351Z,100882.78
2022-08-09T01:28:48.983Z,100884.38
2022-08-09T01:32:39.062Z,100881.59
2022-08-09T01:34:18.249Z,100886.53
2022-08-09T01:36:51.085Z,100884.53
2022-08-09T01:39:23.261Z,100883.53
2022-08-09T01:42:01.250Z,100886.78
2022-08-09T01:44:35.488Z,100889.34
2022-08-09T01:47:07.153Z,100886.56
2022-08-09T01:49:42.667Z,100896.97
2022-08-09T01:52:21.663Z,100894.19
2022-08-09T01:54:55.371Z,100887.97
2022-08-09T01:57:29.098Z,100888.84
2022-08-09T02:00:34.569Z,100893.13
2022-08-09T02:02:53.510Z,100893.94
2022-08-09T02:05:38.195Z,100899.16
2022-08-09T02:08:41.106Z,100890.16
2022-08-09T02:11:17.471Z,100898.88
2022-08-09T02:14:06.598Z,100903.38
2022-08-09T02:16:59.927Z,100906.31
2022-08-09T02:19:38.549Z,100906.38
2022-08-09T02:22:15.075Z,100902.09
2022-08-09T02:24:51.948Z,100913.59
2022-08-09T02:27:43.028Z,100911.97
2022-08-09T02:30:15.672Z,100902.53
2022-08-09T02:32:48.806Z,100909.72
2022-08-09T02:35:46.500Z,100914.19
2022-08-09T02:38:27.804Z,100907.97
2022-08-09T02:41:03.477Z,100906.34
2022-08-09T02:43:47.756Z,100912.47
2022-08-09T02:46:27.587Z,100910.91
2022-08-09T02:49:02.817Z,100902.94
2022-08-09T02:51:40.264Z,100906.50
2022-08-09T02:54:18.136Z,100904.63
2022-08-09T02:56:57.241Z,100919.63
2022-08-09T02:59:36.307Z,100916.06
2022-08-09T03:02:12.237Z,100909.91
2022-08-09T03:04:50.749Z,100917.69
2022-08-09T03:07:21.505Z,100922.16
2022-08-09T03:09:54.268Z,100922.97
2022-08-09T03:12:27.365Z,100916.75
2022-08-09T03:14:56.913Z,100929.31
2022-08-09T03:17:27.715Z,100927.53
2022-08-09T03:20:04.999Z,100920.63
2022-08-09T03:22:43.606Z,100927.59
2022-08-09T03:25:25.978Z,100929.25
2022-08-09T03:28:11.291Z,100928.16
2022-08-09T03:30:40.625Z,100926.28
2022-08-09T03:33:18.874Z,100924.16
2022-08-09T03:36:13.936Z,100920.44
2022-08-09T03:38:44.742Z,100928.84
2022-08-09T03:41:16.085Z,100925.06
2022-08-09T03:44:07.587Z,100924.94
2022-08-09T03:46:35.487Z,100921.84
2022-08-09T03:49:08.796Z,100919.03
2022-08-09T03:51:55.660Z,100919.59
2022-08-09T03:54:31.910Z,100918.75
2022-08-09T03:57:04.573Z,100916.81
2022-08-09T03:59:54.295Z,100916.81
2022-08-09T04:02:28.566Z,100925.50
2022-08-09T04:05:00.788Z,100925.44
2022-08-09T04:07:47.858Z,100924.16
2022-08-09T04:10:28.841Z,100919.56
2022-08-09T04:13:04.199Z,100926.31
2022-08-09T04:15:51.933Z,100932.41
2022-08-09T04:18:22.345Z,100934.25
2022-08-09T04:20:53.817Z,100930.75
2022-08-09T04:23:25.752Z,100931.53
2022-08-09T04:25:55.204Z,100938.63
2022-08-09T04:28:33.429Z,100936.81
2022-08-09T04:31:09.109Z,100937.75
2022-08-09T04:33:47.712Z,100941.97
2022-08-09T04:36:27.520Z,100946.31
2022-08-09T04:39:00.735Z,100939.06
2022-08-09T04:41:33.125Z,100947.66
2022-08-09T04:44:06.582Z,100947.34
2022-08-09T04:46:58.495Z,100952.31
2022-08-09T04:49:52.515Z,100959.56
2022-08-09T04:52:26.638Z,100961.69
2022-08-09T04:54:59.583Z,100956.31
2022-08-09T04:57:54.470Z,100952.94
2022-08-09T05:00:22.413Z,100953.19
2022-08-09T05:02:53.151Z,100954.25
2022-08-09T05:05:31.934Z,100958.94
2022-08-09T05:08:14.070Z,100950.78
2022-08-09T05:10:45.184Z,100960.28
2022-08-09T05:13:14.357Z,100954.31
2022-08-09T05:15:48.089Z,100956.47
2022-08-09T05:18:50.658Z,100959.25
2022-08-09T05:21:13.425Z,100970.03
2022-08-09T05:23:58.502Z,100970.19
2022-08-09T05:26:45.544Z,100976.75
2022-08-09T05:29:22.092Z,100972.91
2022-08-09T05:31:58.396Z,100976.88
2022-08-09T05:34:30.913Z,100972.84
2022-08-09T05:37:05.209Z,100969.13
2022-08-09T05:39:42.515Z,100963.16
2022-08-09T05:42:18.004Z,100974.66
2022-08-09T05:44:51.964Z,100976.84
2022-08-09T05:47:22.746Z,100976.47
2022-08-09T05:50:26.049Z,100973.09
2022-08-09T05:52:42.018Z,100972.91
2022-08-09T05:55:20.334Z,100971.38
2022-08-09T05:57:56.878Z,100973.47
2022-08-09T06:00:29.156Z,100973.88
2022-08-09T06:02:58.731Z,100972.16
2022-08-09T06:05:30.839Z,100969.66
2022-08-09T06:08:19.143Z,100967.38
2022-08-09T06:10:52.939Z,100972.84
2022-08-09T06:13:24.088Z,100973.00
2022-08-09T06:15:53.527Z,100968.97
2022-08-09T06:18:25.890Z,100977.09
2022-08-09T06:20:57.078Z,100980.34
2022-08-09T06:23:58.662Z,100981.72
2022-08-09T06:26:20.866Z,100981.47
2022-08-09T06:29:00.022Z,100980.41
2022-08-09T06:31:40.553Z,100984.66
2022-08-09T06:34:30.673Z,100980.00
2022-08-09T06:37:02.298Z,100981.16
2022-08-09T06:39:38.862Z,100979.09
2022-08-09T06:42:24.527Z,100986.66
2022-08-09T06:45:00.252Z,100996.47
2022-08-09T06:47:39.834Z,100992.44
2022-08-09T06:50:18.948Z,100997.13
2022-08-09T06:52:49.205Z,100999.34
2022-08-09T06:55:22.973Z,101011.22
2022-08-09T06:58:01.841Z,101008.22
2022-08-09T07:00:54.213Z,101004.59
2022-08-09T07:03:27.029Z,101004.59
2022-08-09T07:06:04.179Z,101006.50
2022-08-09T07:08:34.554Z,101002.88
2022-08-09T07:11:05.193Z,101002.06
2022-08-09T07:14:04.012Z,101006.41
2022-08-09T07:16:43.423Z,101002.88
2022-08-09T07:19:18.735Z,101009.50
2022-08-09T07:21:56.957Z,101007.59
2022-08-09T07:24:32.173Z,101016.38
2022-08-09T07:27:26.507Z,101018.69
2022-08-09T07:30:00.649Z,101014.88
2022-08-09T07:32:33.122Z,101010.59
2022-08-09T07:35:08.180Z,101019.22
2022-08-09T07:37:43.623Z,101021.69
2022-08-09T07:40:17.577Z,101016.88
2022-08-09T07:42:52.525Z,101020.16
2022-08-09T07:45:39.435Z,101017.63
2022-08-09T07:48:28.301Z,101021.41
2022-08-09T07:51:09.620Z,101019.53
2022-08-09T07:54:05.367Z,101022.41
2022-08-09T07:56:44.647Z,101022.34
2022-08-09T07:59:33.569Z,101028.69
2022-08-09T08:02:09.398Z,101025.69
2022-08-09T08:04:41.852Z,101030.59
2022-08-09T08:08:43.002Z,101032.44
2022-08-09T08:10:11.115Z,101018.59
2022-08-09T08:12:43.517Z,101028.69
2022-08-09T08:15:16.700Z,101024.25
2022-08-09T08:17:54.751Z,101030.69
2022-08-09T08:20:30.077Z,101027.25
2022-08-09T08:23:06.355Z,101037.22
2022-08-09T08:25:46.439Z,101034.34
2022-08-09T08:28:18.417Z,101038.09
2022-08-09T08:31:10.442Z,101035.84
2022-08-09T08:33:52.153Z,101037.91
2022-08-09T08:36:29.539Z,101027.41
2022-08-09T08:39:00.379Z,101023.41
2022-08-09T08:41:50.306Z,101030.94
2022-08-09T08:44:26.927Z,101029.81
2022-08-09T08:47:02.496Z,101021.97
2022-08-09T08:49:48.671Z,101027.84
2022-08-09T08:55:11.179Z,101029.41
2022-08-09T08:57:42.858Z,101027.47
2022-08-09T09:00:27.792Z,101030.03
2022-08-09T09:03:11.363Z,101021.25
2022-08-09T09:05:59.157Z,101020.97
2022-08-09T09:08:38.042Z,101020.44
2022-08-09T09:11:17.394Z,101020.34
2022-08-09T09:13:57.406Z,101021.06
2022-08-09T09:16:34.056Z,101022.19
2022-08-09T09:22:07.758Z,101018.94
2022-08-09T09:24:43.626Z,101021.91
2022-08-09T09:28:03.624Z,101021.66
2022-08-09T09:30:27.495Z,101027.53
2022-08-09T09:33:15.625Z,101024.34
2022-08-09T09:36:01.971Z,101021.72
2022-08-09T09:38:46.622Z,101013.16
2022-08-09T09:41:48.983Z,101017.09
2022-08-09T09:44:27.864Z,101017.25
2022-08-09T09:47:07.642Z,101017.66
2022-08-09T09:50:07.158Z,101023.53
2022-08-09T09:52:52.554Z,101005.09
2022-08-09T09:55:28.428Z,101010.50
2022-08-09T09:58:19.360Z,101013.56
2022-08-09T10:00:55.148Z,101015.75
2022-08-09T10:03:43.621Z,101017.66
2022-08-09T10:06:13.925Z,101013.56
2022-08-09T10:08:57.274Z,101010.81
2022-08-09T10:11:59.835Z,101019.66
2022-08-09T10:14:30.267Z,101010.72
2022-08-09T10:17:39.887Z,101021.72
2022-08-09T10:20:00.714Z,101021.25
2022-08-09T10:22:40.926Z,101004.84
2022-08-09T10:25:14.646Z,101013.38
2022-08-09T10:27:57.114Z,101002.78
2022-08-09T10:34:05.149Z,101007.19
2022-08-09T10:36:12.254Z,101010.41
2022-08-09T10:38:56.123Z,101009.88
2022-08-09T10:41:26.637Z,101003.34
2022-08-09T10:43:59.889Z,101003.09
2022-08-09T10:47:14.163Z,101002.72
2022-08-09T10:50:03.507Z,101002.22
2022-08-09T10:52:47.500Z,100996.00
2022-08-09T10:55:24.621Z,101001.97
2022-08-09T10:57:55.661Z,101001.66
2022-08-09T11:00:41.771Z,100998.38
2022-08-09T11:03:49.584Z,101001.78
2022-08-09T11:06:26.232Z,100998.28
2022-08-09T11:09:08.649Z,100998.16
2022-08-09T11:12:10.741Z,101002.19
2022-08-09T11:14:42.112Z,100997.31
2022-08-09T11:17:44.507Z,101002.22
2022-08-09T11:20:22.228Z,101000.53
2022-08-09T11:23:10.010Z,100992.75
2022-08-09T11:25:47.449Z,100997.16
2022-08-09T11:28:56.687Z,100985.50
2022-08-09T11:31:49.866Z,100996.50
2022-08-09T11:34:42.884Z,101000.59
2022-08-09T11:37:40.730Z,100992.47
2022-08-09T11:40:13.306Z,100984.34
2022-08-09T11:42:49.261Z,100979.75
2022-08-09T11:45:42.131Z,100986.63
2022-08-09T11:48:26.684Z,100981.56
2022-08-09T11:52:48.690Z,100974.47
2022-08-09T11:54:27.539Z,100978.22
2022-08-09T11:57:47.950Z,100972.19
2022-08-09T12:00:32.113Z,100972.50
2022-08-09T12:03:50.370Z,100977.44
2022-08-09T12:05:53.043Z,100972.00
2022-08-09T12:08:24.403Z,100959.63
2022-08-09T12:10:56.247Z,100964.50
2022-08-09T12:14:08.992Z,100953.69
2022-08-09T12:16:37.760Z,100962.81
2022-08-09T12:19:09.970Z,100956.41
2022-08-09T12:21:50.184Z,100952.31
2022-08-09T12:24:25.654Z,100953.06
2022-08-09T12:29:13.272Z,100949.06
2022-08-09T12:30:00.120Z,100947.25
2022-08-09T12:32:36.160Z,100950.72
2022-08-09T12:35:12.391Z,100948.00
2022-08-09T12:37:50.528Z,100938.47
2022-08-09T12:40:27.170Z,100944.13
2022-08-09T12:42:58.320Z,100935.28
2022-08-09T12:45:33.554Z,100938.91
2022-08-09T12:48:04.279Z,100934.28
2022-08-09T12:50:33.329Z,100928.03
2022-08-09T12:53:17.660Z,100939.91
2022-08-09T12:56:12.617Z,100935.63
2022-08-09T12:58:42.888Z,100929.06
2022-08-09T13:01:23.568Z,100934.91
2022-08-09T13:04:07.992Z,100934.22
2022-08-09T13:06:56.748Z,100930.91
2022-08-09T13:09:30.709Z,100930.81
2022-08-09T13:12:03.701Z,100938.41
2022-08-09T13:14:43.836Z,100925.69
2022-08-09T13:17:44.403Z,100918.69
2022-08-09T13:20:16.089Z,100925.28
2022-08-09T13:23:01.668Z,100924.91
2022-08-09T13:25:54.704Z,100924.34
2022-08-09T13:28:34.236Z,100925.22
2022-08-09T13:32:16.713Z,100920.72
2022-08-09T13:34:00.112Z,100922.75
2022-08-09T13:36:41.261Z,100922.69
2022-08-09T13:41:20.980Z,100919.78
2022-08-09T13:42:03.417Z,100915.75
2022-08-09T13:44:34.535Z,100913.00
2022-08-09T13:47:25.473Z,100914.09
2022-08-09T13:50:00.884Z,100906.91
2022-08-09T13:52:30.940Z,100911.09
2022-08-09T13:55:05.630Z,100907.25
2022-08-09T13:57:39.830Z,100908.09
2022-08-09T14:00:13.612Z,100912.81
2022-08-09T14:03:04.330Z,100909.31
2022-08-09T14:05:59.644Z,100914.66
2022-08-09T14:08:29.820Z,100910.56
2022-08-09T14:11:00.215Z,100912.38
2022-08-09T14:14:24.720Z,100912.91
2022-08-09T14:16:28.731Z,100912.34
2022-08-09T14:18:59.680Z,100919.56
2022-08-09T14:21:29.598Z,100910.69
2022-08-09T14:24:10.338Z,100913.44
2022-08-09T14:26:51.827Z,100915.53
2022-08-09T14:30:04.197Z,100905.97
2022-08-09T14:32:11.224Z,100906.56
2022-08-09T14:34:46.143Z,100900.59
2022-08-09T14:37:15.086Z,100901.59
2022-08-09T14:39:48.602Z,100893.13
2022-08-09T14:42:28.886Z,100895.13
2022-08-09T14:46:54.494Z,100886.66
2022-08-09T14:47:58.055Z,100891.38
2022-08-09T14:50:34.271Z,100890.34
2022-08-09T14:53:04.031Z,100891.13
2022-08-09T14:55:41.946Z,100890.31
2022-08-09T14:58:11.669Z,100899.75
2022-08-09T15:00:42.522Z,100896.03
2022-08-09T15:03:20.467Z,100897.19
2022-08-09T15:05:55.639Z,100886.41
2022-08-09T15:08:30.360Z,100892.97
2022-08-09T15:11:01.665Z,100891.25
2022-08-09T15:13:56.018Z,100889.78
2022-08-09T15:16:22.581Z,100900.81
2022-08-09T15:18:52.365Z,100891.72
2022-08-09T15:21:55.795Z,100894.03
2022-08-09T15:24:18.002Z,100891.03
2022-08-09T15:26:53.379Z,100898.88
2022-08-09T15:30:48.818Z,100899.84
2022-08-09T15:32:29.177Z,100894.78
2022-08-09T15:35:01.497Z,100890.97
2022-08-09T15:37:57.461Z,100888.69
2022-08-09T15:40:33.588Z,100893.25
2022-08-09T15:43:02.555Z,100901.56
2022-08-09T15:46:07.576Z,100896.63
2022-08-09T15:48:28.940Z,100902.50
2022-08-09T15:50:58.414Z,100899.13
2022-08-09T15:54:06.368Z,100899.00
2022-08-09T15:56:21.355Z,100892.34
2022-08-09T15:58:58.329Z,100895.88
2022-08-09T16:01:27.722Z,100893.47
2022-08-09T16:04:00.150Z,100896.88
2022-08-09T16:06:34.669Z,100900.53
2022-08-09T16:09:06.748Z,100903.06
2022-08-09T16:11:36.185Z,100896.00
2022-08-09T16:14:07.863Z,100892.03
2022-08-09T16:16:37.999Z,100889.16
2022-08-09T16:19:07.979Z,100892.25
2022-08-09T16:21:36.774Z,100891.25
2022-08-09T16:24:20.136Z,100899.72
2022-08-09T16:26:57.994Z,100903.94
2022-08-09T16:29:37.671Z,100902.63
2022-08-09T16:32:33.426Z,100897.78
2022-08-09T16:35:03.062Z,100892.72
2022-08-09T16:37:53.656Z,100894.97
2022-08-09T16:40:29.898Z,100899.28
2022-08-09T16:43:10.136Z,100897.41
2022-08-09T16:45:44.204Z,100892.81
2022-08-09T16:48:39.725Z,100900.16
2022-08-09T16:51:08.105Z,100901.81
2022-08-09T16:54:08.833Z,100904.03
2022-08-09T16:56:34.149Z,100907.34
2022-08-09T16:59:06.741Z,100903.91
2022-08-09T17:01:42.631Z,100908.44
2022-08-09T17:04:26.103Z,100911.47
2022-08-09T17:08:41.281Z,100904.84
2022-08-09T17:09:47.810Z,100909.88
2022-08-09T17:12:19.626Z,100913.03
2022-08-09T17:14:50.686Z,100917.69
2022-08-09T17:17:27.891Z,100915.06
2022-08-09T17:20:29.003Z,100923.56
2022-08-09T17:22:52.205Z,100921.41
2022-08-09T17:25:23.428Z,100919.50
2022-08-09T17:27:55.224Z,100918.44
2022-08-09T17:30:28.101Z,100925.03
2022-08-09T17:33:00.952Z,100931.72
2022-08-09T17:35:41.266Z,100926.78
2022-08-09T17:38:34.141Z,100929.09
2022-08-09T17:41:00.896Z,100930.56
2022-08-09T17:43:36.897Z,100927.50
2022-08-09T17:46:09.142Z,100927.97
2022-08-09T17:48:40.368Z,100933.22
2022-08-09T17:51:18.527Z,100938.44
2022-08-09T17:53:52.896Z,100942.94
2022-08-09T17:56:27.054Z,100950.34
2022-08-09T17:58:59.890Z,100953.09
2022-08-09T18:02:06.145Z,100947.22
2022-08-09T18:04:19.823Z,100945.34
2022-08-09T18:06:54.605Z,100949.31
2022-08-09T18:09:35.783Z,100955.53
2022-08-09T18:12:17.614Z,100954.56
2022-08-09T18:14:54.969Z,100953.09
2022-08-09T18:18:01.791Z,100953.38
2022-08-09T18:20:57.267Z,100959.41
2022-08-09T18:23:05.026Z,100958.31
2022-08-09T18:25:50.426Z,100959.41
2022-08-09T18:30:39.171Z,100962.81
2022-08-09T18:31:14.171Z,100968.06
2022-08-09T18:33:52.985Z,100957.50
2022-08-09T18:36:25.624Z,100964.72
2022-08-09T18:39:02.571Z,100966.44
2022-08-09T18:41:34.365Z,100972.81
2022-08-09T18:44:13.152Z,100977.00
2022-08-09T18:46:50.145Z,100977.97
2022-08-09T18:49:41.445Z,100984.56
2022-08-09T18:52:12.974Z,100981.13
2022-08-09T18:54:52.440Z,100973.06
2022-08-09T18:57:23.232Z,100977.31
2022-08-09T18:59:58.869Z,100975.19
2022-08-09T19:02:31.822Z,100973.44
2022-08-09T19:05:03.906Z,100983.78
2022-08-09T19:08:04.854Z,100981.50
2022-08-09T19:10:37.361Z,100983.97
2022-08-09T19:13:19.214Z,100982.47
2022-08-09T19:15:52.600Z,100980.09
2022-08-09T19:18:34.962Z,100973.97
2022-08-09T19:21:10.570Z,100982.56
2022-08-09T19:24:33.356Z,100981.31
2022-08-09T19:26:32.105Z,100984.03
2022-08-09T19:29:02.254Z,100988.44
2022-08-09T19:31:44.974Z,100985.59
2022-08-09T19:34:21.436Z,100984.41
2022-08-09T19:36:51.414Z,100992.16
2022-08-09T19:39:43.553Z,100994.53
2022-08-09T19:42:14.899Z,100990.06
2022-08-09T19:44:49.372Z,100992.16
2022-08-09T19:47:22.775Z,100986.34
2022-08-09T19:50:07.769Z,100987.22
2022-08-09T19:52:48.180Z,100986.91
2022-08-09T19:55:30.570Z,100992.97
2022-08-09T19:58:16.507Z,100991.78
2022-08-09T20:00:47.327Z,100989.88
2022-08-09T20:04:12.490Z,100994.94
2022-08-09T20:06:10.415Z,100989.97
2022-08-09T20:08:52.479Z,100984.25
2022-08-09T20:11:26.224Z,100987.09
2022-08-09T20:13:55.704Z,100991.78
2022-08-09T20:16:32.901Z,100986.09
2022-08-09T20:19:49.236Z,100987.22
2022-08-09T20:22:02.469Z,100989.19
2022-08-09T20:24:34.439Z,100985.09
2022-08-09T20:27:08.556Z,100982.59
2022-08-09T20:29:39.551Z,100983.13
2022-08-09T20:32:31.257Z,100982.53
2022-08-09T20:34:58.562Z,100982.88
2022-08-09T20:38:08.701Z,100987.16
2022-08-09T20:40:24.702Z,100988.50
2022-08-09T20:43:18.534Z,100978.75
2022-08-09T20:46:00.802Z,100981.75
2022-08-09T20:48:45.116Z,100982.78
2022-08-09T20:51:16.893Z,100983.72
2022-08-09T20:53:52.315Z,100983.81
2022-08-09T20:56:22.057Z,100992.97
2022-08-09T20:58:59.246Z,100986.13
2022-08-09T21:01:34.696Z,100990.81
2022-08-09T21:05:56.276Z,100989.97
2022-08-09T21:07:13.010Z,100985.53
2022-08-09T21:09:56.113Z,100985.94
2022-08-09T21:15:17.947Z,100984.59
2022-08-09T21:18:23.296Z,100983.91
2022-08-09T21:20:42.819Z,100984.03
2022-08-09T21:23:13.472Z,100992.28
2022-08-09T21:25:55.436Z,100988.53
2022-08-09T21:28:34.546Z,100990.56
2022-08-09T21:31:17.766Z,100979.53
2022-08-09T21:33:51.216Z,100987.25
2022-08-09T21:36:23.225Z,100995.91
2022-08-09T21:38:57.356Z,100996.06
2022-08-09T21:42:03.631Z,100984.41
2022-08-09T21:44:33.068Z,100988.59
2022-08-09T21:47:07.706Z,100993.53
2022-08-09T21:49:40.352Z,100987.94
2022-08-09T21:52:17.825Z,100993.50
2022-08-09T21:54:51.110Z,100982.69
2022-08-09T21:57:39.287Z,100992.53
2022-08-09T22:00:25.451Z,100985.19
2022-08-09T22:02:58.138Z,100991.09
2022-08-09T22:05:36.043Z,100981.72
2022-08-09T22:08:13.715Z,100983.72
2022-08-09T22:11:49.991Z,100975.47
2022-08-09T22:13:37.281Z,100972.00
2022-08-09T22:16:08.845Z,100968.31
2022-08-09T22:18:52.164Z,100972.31
2022-08-09T22:21:27.528Z,100976.88
2022-08-09T22:24:16.977Z,100987.63
2022-08-09T22:26:50.977Z,100984.13
2022-08-09T22:29:28.824Z,100985.13
2022-08-09T22:32:29.343Z,100977.38
2022-08-09T22:35:05.954Z,100991.66
2022-08-09T22:37:40.365Z,100991.88
2022-08-09T22:40:18.228Z,101001.34
2022-08-09T22:42:49.430Z,100998.34
2022-08-09T22:48:12.120Z,100992.47
2022-08-09T22:48:34.375Z,100991.06
2022-08-09T22:50:59.125Z,100986.25
2022-08-09T22:53:44.230Z,100989.94
2022-08-09T22:56:30.974Z,100981.44
2022-08-09T22:59:05.689Z,100984.13
2022-08-09T23:01:53.577Z,100986.09
2022-08-09T23:04:22.117Z,100981.13
2022-08-09T23:07:13.905Z,100983.16
2022-08-09T23:09:42.939Z,100987.88
2022-08-09T23:12:11.547Z,100993.09
2022-08-09T23:14:42.591Z,100985.47
2022-08-09T23:17:12.533Z,100984.09
2022-08-09T23:20:07.268Z,100985.34
2022-08-09T23:22:30.238Z,100979.22
2022-08-09T23:24:58.759Z,100987.00
2022-08-09T23:27:27.210Z,100985.22
2022-08-09T23:29:55.812Z,100979.97
2022-08-09T23:32:25.729Z,100983.66
2022-08-09T23:34:54.054Z,100974.81
2022-08-09T23:37:25.437Z,100980.81
2022-08-09T23:39:54.173Z,100977.38
2022-08-09T23:42:23.026Z,100978.31
2022-08-09T23:44:51.452Z,100980.03
2022-08-09T23:47:19.901Z,100979.47
2022-08-09T23:49:50.049Z,100972.63
2022-08-09T23:52:18.459Z,100985.00
2022-08-09T23:54:51.989Z,100979.06
2022-08-09T23:57:21.996Z,100988.16
